createdAt,value
2019-01-10T00:02:39.008Z,6.63
2019-01-10T00:06:43.289Z,4.33
2019-01-10T00:10:47.704Z,4.87
2019-01-10T00:14:53.174Z,5.13
2019-01-10T00:18:57.479Z,5.30
2019-01-10T00:23:02.223Z,4.00
2019-01-10T00:27:06.507Z,4.03
2019-01-10T00:31:10.953Z,4.20
2019-01-10T00:35:15.259Z,5.47
2019-01-10T00:39:19.549Z,6.07
2019-01-10T00:43:23.830Z,4.20
2019-01-10T00:47:28.090Z,5.80
2019-01-10T00:51:32.373Z,3.97
2019-01-10T00:55:36.670Z,4.70
2019-01-10T00:59:40.946Z,4.93
2019-01-10T01:03:45.230Z,5.13
2019-01-10T01:07:51.325Z,5.17
2019-01-10T01:11:55.642Z,5.43
2019-01-10T01:16:01.623Z,5.47
2019-01-10T01:20:06.927Z,5.03
2019-01-10T01:24:14.146Z,5.57
2019-01-10T01:28:18.654Z,5.63
2019-01-10T01:32:22.957Z,4.83
2019-01-10T01:36:27.340Z,4.97
2019-01-10T01:40:31.836Z,5.53
2019-01-10T01:44:36.303Z,6.37
2019-01-10T01:48:40.963Z,6.87
2019-01-10T01:52:45.775Z,7.77
2019-01-10T01:56:50.264Z,6.33
2019-01-10T02:00:54.623Z,5.10
2019-01-10T02:04:59.162Z,7.10
2019-01-10T02:09:04.397Z,7.30
2019-01-10T02:13:16.543Z,5.63
2019-01-10T02:17:15.920Z,8.33
2019-01-10T02:21:20.369Z,6.90
2019-01-10T02:25:25.016Z,5.50
2019-01-10T02:29:29.334Z,7.10
2019-01-10T02:33:33.639Z,7.70
2019-01-10T02:37:38.206Z,7.53
2019-01-10T02:41:42.539Z,7.97
2019-01-10T02:45:46.911Z,8.80
2019-01-10T02:49:51.276Z,7.87
2019-01-10T02:53:55.558Z,7.77
2019-01-10T02:57:59.960Z,8.40
2019-01-10T03:02:04.734Z,7.67
2019-01-10T03:06:09.124Z,8.37
2019-01-10T03:10:14.672Z,7.33
2019-01-10T03:14:18.939Z,7.60
2019-01-10T03:18:23.269Z,8.63
2019-01-10T03:22:27.637Z,8.17
2019-01-10T03:26:32.088Z,8.73
2019-01-10T03:30:36.353Z,7.00
2019-01-10T03:34:40.647Z,7.30
2019-01-10T03:38:44.967Z,9.57
2019-01-10T03:42:49.329Z,8.87
2019-01-10T03:46:53.655Z,8.00
2019-01-10T03:50:58.008Z,8.40
2019-01-10T03:55:02.323Z,10.07
2019-01-10T03:59:06.661Z,9.23
2019-01-10T04:03:10.992Z,8.37
2019-01-10T04:07:15.328Z,9.53
2019-01-10T04:11:19.656Z,10.27
2019-01-10T04:15:24.096Z,10.40
2019-01-10T04:19:28.630Z,9.77
2019-01-10T04:23:32.963Z,10.70
2019-01-10T04:27:37.359Z,10.33
2019-01-10T04:31:41.889Z,11.73
2019-01-10T04:35:46.201Z,12.20
2019-01-10T04:39:50.835Z,13.53
2019-01-10T04:43:55.225Z,12.07
2019-01-10T04:47:59.607Z,10.93
2019-01-10T04:52:03.886Z,13.33
2019-01-10T04:56:08.253Z,11.97
2019-01-10T05:00:18.661Z,15.37
2019-01-10T05:04:23.887Z,12.87
2019-01-10T05:08:28.252Z,12.90
2019-01-10T05:12:32.530Z,16.00
2019-01-10T05:16:36.948Z,13.87
2019-01-10T05:20:41.297Z,13.37
2019-01-10T05:24:46.764Z,14.40
2019-01-10T05:28:51.185Z,11.47
2019-01-10T05:32:55.789Z,12.13
2019-01-10T05:37:00.183Z,13.47
2019-01-10T05:41:04.507Z,12.47
2019-01-10T05:45:10.721Z,12.43
2019-01-10T05:49:15.524Z,15.80
2019-01-10T05:53:20.044Z,11.83
2019-01-10T05:57:24.563Z,15.17
2019-01-10T06:01:29.082Z,13.17
2019-01-10T06:05:33.453Z,15.33
2019-01-10T06:09:37.847Z,15.93
2019-01-10T06:13:42.193Z,14.37
2019-01-10T06:17:46.797Z,11.70
2019-01-10T06:21:51.177Z,13.87
2019-01-10T06:25:55.697Z,15.70
2019-01-10T06:30:01.199Z,17.97
2019-01-10T06:34:06.549Z,14.70
2019-01-10T06:38:11.042Z,17.67
2019-01-10T06:42:15.459Z,15.20
2019-01-10T06:46:19.777Z,19.27
2019-01-10T06:50:24.242Z,13.27
2019-01-10T06:54:28.650Z,18.70
2019-01-10T06:58:33.002Z,15.57
2019-01-10T07:02:37.408Z,17.43
2019-01-10T07:06:42.819Z,16.67
2019-01-10T07:10:47.971Z,17.27
2019-01-10T07:14:53.612Z,17.53
2019-01-10T07:18:59.102Z,19.97
2019-01-10T07:23:04.705Z,18.63
2019-01-10T07:27:09.199Z,23.93
2019-01-10T07:31:29.569Z,19.70
2019-01-10T07:35:34.143Z,21.07
2019-01-10T07:39:39.739Z,20.17
2019-01-10T07:43:43.940Z,22.77
2019-01-10T07:47:48.852Z,25.37
2019-01-10T07:51:53.190Z,20.27
2019-01-10T07:55:57.432Z,19.30
2019-01-10T08:00:01.714Z,13.57
2019-01-10T08:04:05.962Z,14.70
2019-01-10T08:08:10.290Z,19.50
2019-01-10T08:12:15.089Z,17.53
2019-01-10T08:16:19.298Z,15.97
2019-01-10T08:20:23.578Z,17.70
2019-01-10T08:24:27.943Z,18.40
2019-01-10T08:28:32.229Z,18.07
2019-01-10T08:32:42.681Z,15.27
2019-01-10T08:36:47.332Z,16.27
2019-01-10T08:40:53.438Z,15.90
2019-01-10T08:44:59.726Z,17.47
2019-01-10T08:49:07.925Z,18.53
2019-01-10T08:53:12.592Z,18.77
2019-01-10T08:57:17.324Z,15.90
2019-01-10T09:01:21.553Z,19.00
2019-01-10T09:05:25.921Z,18.83
2019-01-10T09:09:30.232Z,18.23
2019-01-10T09:13:34.575Z,19.07
2019-01-10T09:17:38.956Z,17.30
2019-01-10T09:21:43.450Z,19.37
2019-01-10T09:25:47.945Z,17.80
2019-01-10T09:29:52.195Z,21.83
2019-01-10T09:33:56.845Z,16.23
2019-01-10T09:38:01.107Z,16.90
2019-01-10T09:42:07.429Z,20.60
2019-01-10T09:46:12.070Z,20.13
2019-01-10T09:50:18.854Z,17.90
2019-01-10T09:54:23.219Z,17.50
2019-01-10T09:58:28.742Z,16.70
2019-01-10T10:02:33.083Z,17.43
2019-01-10T10:06:37.967Z,20.27
2019-01-10T10:10:42.309Z,18.80
2019-01-10T10:14:46.623Z,20.13
2019-01-10T10:18:58.848Z,19.00
2019-01-10T10:23:03.187Z,19.27
2019-01-10T10:27:07.543Z,19.17
2019-01-10T10:31:13.665Z,16.37
2019-01-10T10:35:18.385Z,18.23
2019-01-10T10:39:24.343Z,19.67
2019-01-10T10:43:28.691Z,17.70
2019-01-10T10:47:34.986Z,19.27
2019-01-10T10:51:39.866Z,17.93
2019-01-10T10:55:44.160Z,18.13
2019-01-10T10:59:48.464Z,19.57
2019-01-10T11:03:52.778Z,15.40
2019-01-10T11:07:57.104Z,15.97
2019-01-10T11:12:01.518Z,18.90
2019-01-10T11:16:10.692Z,18.37
2019-01-10T11:20:15.468Z,15.77
2019-01-10T11:24:19.757Z,16.47
2019-01-10T11:28:24.203Z,19.10
2019-01-10T11:32:28.841Z,17.70
2019-01-10T11:36:34.022Z,16.63
2019-01-10T11:40:38.445Z,17.73
2019-01-10T11:44:45.711Z,16.10
2019-01-10T11:48:50.150Z,16.23
2019-01-10T11:52:54.761Z,16.93
2019-01-10T11:56:59.064Z,18.20
2019-01-10T12:01:06.695Z,13.73
2019-01-10T12:05:30.421Z,18.67
2019-01-10T12:09:36.915Z,16.77
2019-01-10T12:13:41.264Z,16.80
2019-01-10T12:17:45.769Z,18.87
2019-01-10T12:21:52.353Z,17.10
2019-01-10T12:26:15.752Z,17.53
2019-01-10T12:30:22.347Z,15.10
2019-01-10T12:34:26.720Z,17.03
2019-01-10T12:38:31.003Z,15.70
2019-01-10T12:42:35.326Z,16.70
2019-01-10T12:46:39.733Z,15.50
2019-01-10T12:50:44.026Z,18.67
2019-01-10T12:54:48.280Z,19.40
2019-01-10T12:58:52.499Z,17.50
2019-01-10T13:02:56.891Z,16.90
2019-01-10T13:07:01.109Z,19.20
2019-01-10T13:11:05.278Z,15.63
2019-01-10T13:15:11.754Z,16.70
2019-01-10T13:19:15.949Z,15.63
2019-01-10T13:23:20.126Z,13.60
2019-01-10T13:27:24.392Z,16.50
2019-01-10T13:31:28.522Z,15.40
2019-01-10T13:35:32.699Z,14.93
2019-01-10T13:39:36.931Z,14.23
2019-01-10T13:43:41.088Z,13.10
2019-01-10T13:47:47.972Z,14.27
2019-01-10T13:51:52.051Z,15.70
2019-01-10T13:55:56.237Z,15.17
2019-01-10T14:00:00.434Z,12.57
2019-01-10T14:04:04.623Z,15.40
2019-01-10T14:08:08.806Z,14.70
2019-01-10T14:12:12.949Z,13.83
2019-01-10T14:16:17.132Z,11.90
2019-01-10T14:20:21.319Z,11.87
2019-01-10T14:24:25.487Z,12.27
2019-01-10T14:28:29.964Z,12.20
2019-01-10T14:32:34.082Z,10.47
2019-01-10T14:36:38.589Z,10.47
2019-01-10T14:40:42.767Z,13.33
2019-01-10T14:44:46.961Z,10.10
2019-01-10T14:48:51.177Z,14.00
2019-01-10T14:52:55.309Z,17.00
2019-01-10T14:56:59.502Z,10.70
2019-01-10T15:01:03.665Z,11.37
2019-01-10T15:05:08.075Z,12.60
2019-01-10T15:09:12.271Z,14.83
2019-01-10T15:13:16.541Z,12.43
2019-01-10T15:17:20.698Z,13.27
2019-01-10T15:21:24.855Z,12.83
2019-01-10T15:25:29.067Z,9.83
2019-01-10T15:29:33.270Z,11.03
2019-01-10T15:33:37.406Z,12.83
2019-01-10T15:37:45.059Z,12.37
2019-01-10T15:41:49.303Z,11.07
2019-01-10T15:45:53.483Z,13.00
2019-01-10T15:49:57.717Z,10.57
2019-01-10T15:54:03.936Z,15.20
2019-01-10T15:58:08.157Z,11.47
2019-01-10T16:02:12.906Z,11.63
2019-01-10T16:06:17.076Z,11.37
2019-01-10T16:10:21.521Z,13.97
2019-01-10T16:14:25.733Z,12.57
2019-01-10T16:18:29.905Z,12.73
2019-01-10T16:22:34.103Z,13.37
2019-01-10T16:26:38.617Z,12.80
2019-01-10T16:30:42.764Z,11.67
2019-01-10T16:34:46.954Z,11.03
2019-01-10T16:38:51.161Z,12.43
2019-01-10T16:42:55.340Z,11.60
2019-01-10T16:46:59.655Z,10.00
2019-01-10T16:51:03.837Z,11.10
2019-01-10T16:55:08.804Z,11.03
2019-01-10T16:59:13.019Z,10.83
2019-01-10T17:03:17.156Z,10.00
2019-01-10T17:07:21.344Z,13.20
2019-01-10T17:11:25.525Z,10.47
2019-01-10T17:15:29.981Z,9.33
2019-01-10T17:19:34.126Z,8.87
2019-01-10T17:23:38.467Z,9.83
2019-01-10T17:27:42.696Z,11.07
2019-01-10T17:31:46.918Z,9.43
2019-01-10T17:35:51.103Z,8.67
2019-01-10T17:39:55.344Z,10.90
2019-01-10T17:43:59.819Z,8.77
2019-01-10T17:48:04.276Z,8.30
2019-01-10T17:52:08.817Z,9.97
2019-01-10T17:56:12.965Z,9.40
2019-01-10T18:00:19.708Z,9.70
2019-01-10T18:04:23.851Z,8.00
2019-01-10T18:08:28.030Z,9.13
2019-01-10T18:12:32.194Z,8.90
2019-01-10T18:16:36.361Z,10.30
2019-01-10T18:20:41.528Z,9.17
2019-01-10T18:24:45.674Z,7.80
2019-01-10T18:28:49.930Z,8.40
2019-01-10T18:32:54.306Z,7.03
2019-01-10T18:36:58.483Z,7.10
2019-01-10T18:41:02.627Z,9.57
2019-01-10T18:45:10.239Z,8.77
2019-01-10T18:49:14.453Z,7.47
2019-01-10T18:53:18.623Z,7.50
2019-01-10T18:57:23.113Z,7.10
2019-01-10T19:01:27.295Z,8.40
2019-01-10T19:05:31.948Z,6.87
2019-01-10T19:09:36.168Z,7.87
2019-01-10T19:13:40.356Z,8.27
2019-01-10T19:17:44.478Z,9.83
2019-01-10T19:21:48.709Z,10.47
2019-01-10T19:25:52.845Z,8.97
2019-01-10T19:29:57.022Z,8.67
2019-01-10T19:34:01.226Z,8.70
2019-01-10T19:38:05.690Z,9.60
2019-01-10T19:42:12.754Z,11.03
2019-01-10T19:46:16.075Z,9.50
2019-01-10T19:50:22.399Z,8.57
2019-01-10T19:54:26.590Z,10.80
2019-01-10T19:58:30.763Z,9.60
2019-01-10T20:02:35.002Z,10.47
2019-01-10T20:06:39.224Z,8.60
2019-01-10T20:10:43.393Z,9.93
2019-01-10T20:14:47.527Z,10.23
2019-01-10T20:18:51.752Z,10.47
2019-01-10T20:22:57.785Z,10.40
2019-01-10T20:27:02.020Z,9.47
2019-01-10T20:31:06.192Z,10.40
2019-01-10T20:35:10.784Z,9.70
2019-01-10T20:39:15.023Z,11.60
2019-01-10T20:43:19.219Z,10.57
2019-01-10T20:47:23.483Z,8.67
2019-01-10T20:51:27.736Z,10.77
2019-01-10T20:55:31.949Z,9.97
2019-01-10T20:59:36.107Z,8.93
2019-01-10T21:03:40.233Z,9.13
2019-01-10T21:07:47.028Z,8.40
2019-01-10T21:11:51.167Z,8.77
2019-01-10T21:15:58.497Z,7.53
2019-01-10T21:20:02.779Z,9.03
2019-01-10T21:24:06.929Z,7.57
2019-01-10T21:28:11.109Z,7.17
2019-01-10T21:32:15.245Z,6.53
2019-01-10T21:36:19.970Z,7.07
2019-01-10T21:40:24.750Z,7.33
2019-01-10T21:44:28.895Z,7.43
2019-01-10T21:48:35.163Z,8.23
2019-01-10T21:52:39.003Z,8.97
2019-01-10T21:56:44.537Z,6.37
2019-01-10T22:00:48.893Z,8.27
2019-01-10T22:04:53.230Z,6.47
2019-01-10T22:08:57.515Z,6.03
2019-01-10T22:13:01.819Z,4.77
2019-01-10T22:17:06.021Z,7.10
2019-01-10T22:21:10.189Z,5.10
2019-01-10T22:25:14.417Z,5.50
2019-01-10T22:29:18.863Z,6.03
2019-01-10T22:33:23.023Z,5.43
2019-01-10T22:37:29.168Z,4.10
2019-01-10T22:41:33.080Z,4.77
2019-01-10T22:45:37.261Z,4.50
2019-01-10T22:49:41.451Z,5.00
2019-01-10T22:53:45.613Z,5.47
2019-01-10T22:57:50.122Z,4.20
2019-01-10T23:01:57.232Z,5.90
2019-01-10T23:06:01.450Z,3.00
2019-01-10T23:10:09.007Z,3.93
2019-01-10T23:14:13.541Z,3.43
2019-01-10T23:18:17.724Z,3.20
2019-01-10T23:22:21.901Z,3.23
2019-01-10T23:26:26.075Z,2.27
2019-01-10T23:30:56.532Z,2.93
2019-01-10T23:35:00.696Z,3.20
2019-01-10T23:39:19.280Z,3.77
2019-01-10T23:43:23.417Z,3.43
2019-01-10T23:47:27.544Z,3.03
2019-01-10T23:51:31.753Z,4.87
2019-01-10T23:55:36.220Z,2.70
2019-01-10T23:59:40.394Z,4.33
